.
WxDataArchive / Data Records for 2006-03-12
2006-03-11 March 2006 2006-03-13

Data Records for Sunday, 12 March 2006

Time	Temp	Chill	HIndex	Humid	Dewpt	 Wind 	HiWind	WindDir	Rain 	Barom 
-----	----	-----	------	-----	-----	------	------	-------	-----	----- 
00:00	54.1	54.1	54.1	93	52.1	1	3	112	0.03	29.912 
00:05	54.2	54.2	54.2	93	52.2	1	3	292	0.02	29.912 
00:10	54.2	54.2	54.2	93	52.2	1	3	270	0.07	29.912 
00:15	54.4	54.4	54.4	94	52.7	1	3	292	0.06	29.925 
00:20	54.2	54.2	54.2	94	52.5	1	3	315	0.02	29.925 
00:25	54.2	54.2	54.2	94	52.5	1	3	270	0.08	29.925 
00:30	54.2	54.2	54.2	94	52.5	1	3	68	0.05	29.974 
00:35	54.2	54.2	54.2	94	52.5	0	2	292	0.04	29.974 
00:40	54.2	54.2	54.2	94	52.5	0	2	292	0.02	29.974 
00:45	54.2	54.2	54.2	94	52.5	0	1	292	0.02	29.952 
00:50	54.1	54.1	54.1	94	52.4	0	2	292	0.02	29.952 
00:55	54.1	54.1	54.1	94	52.4	1	2	292	0.02	29.952 
01:00	53.9	53.9	53.9	94	52.2	3	5	112	0.01	29.888 
01:05	53.9	53.9	53.9	95	52.5	1	3	112	0.01	29.888 
01:10	53.9	53.9	53.9	95	52.5	1	3	112	0.00	29.888 
01:15	53.8	53.8	53.8	95	52.4	2	4	90	0.00	29.890 
01:20	53.6	53.6	53.6	95	52.2	0	1	90	0.00	29.890 
01:25	53.5	53.5	53.5	95	52.1	0	2	90	0.00	29.890 
01:30	53.5	53.5	53.5	95	52.1	1	2	90	0.00	29.889 
01:35	53.3	53.3	53.3	95	51.9	1	3	90	0.00	29.889 
01:40	53.3	53.3	53.3	95	51.9	1	3	90	0.00	29.889 
01:45	53.2	53.2	53.2	95	51.8	0	1	90	0.00	29.896 
01:50	53.2	53.2	53.2	95	51.8	1	2	90	0.00	29.896 
01:55	53.2	53.2	53.2	95	51.8	1	3	112	0.00	29.896 
02:00	53.2	53.2	53.2	95	51.8	0	1	112	0.00	29.899 
02:05	53.2	53.2	53.2	95	51.8	0	1	135	0.00	29.899 
02:10	53.2	53.2	53.2	95	51.8	0	2	135	0.00	29.899 
02:15	53.3	53.3	53.3	95	51.9	1	4	112	0.00	29.903 
02:20	53.5	53.5	53.5	95	52.1	2	3	112	0.01	29.903 
02:25	53.5	53.5	53.5	95	52.1	2	4	112	0.00	29.903 
02:30	53.5	53.5	53.5	95	52.1	2	4	112	0.01	29.891 
02:35	53.6	53.6	53.6	95	52.2	3	7	112	0.01	29.891 
02:40	53.6	53.6	53.6	95	52.2	3	7	112	0.01	29.891 
02:45	53.6	53.6	53.6	95	52.2	4	7	90	0.00	29.856 
02:50	53.8	53.8	53.8	95	52.4	3	5	112	0.01	29.856 
02:55	53.8	53.8	53.8	95	52.4	2	5	90	0.00	29.856 
03:00	53.9	53.9	53.9	95	52.5	3	7	90	0.00	29.823 
03:05	54.1	54.1	54.1	95	52.7	3	6	90	0.00	29.823 
03:10	54.1	54.1	54.1	95	52.7	2	5	112	0.00	29.823 
03:15	54.1	54.1	54.1	95	52.7	2	5	112	0.00	29.829 
03:20	54.2	54.2	54.2	95	52.8	3	6	112	0.00	29.829 
03:25	54.2	54.2	54.2	95	52.8	2	5	90	0.00	29.829 
03:30	54.2	54.2	54.2	95	52.8	2	5	90	0.00	29.833 
03:35	54.2	54.2	54.2	95	52.8	1	4	248	0.00	29.833 
03:40	54.2	54.2	54.2	95	52.8	0	2	248	0.00	29.833 
03:45	54.2	54.2	54.2	95	52.8	0	1	248	0.00	29.842 
03:50	54.2	54.2	54.2	95	52.8	0	0	---	0.00	29.842 
03:55	54.1	54.1	54.1	95	52.7	0	2	248	0.00	29.842 
04:00	54.1	54.1	54.1	95	52.7	0	2	248	0.00	29.845 
04:05	53.9	53.9	53.9	95	52.5	0	0	---	0.00	29.845 
04:10	53.9	53.9	53.9	95	52.5	0	0	---	0.00	29.845 
04:15	54.1	54.1	54.1	95	52.7	0	2	248	0.00	29.848 
04:20	54.1	54.1	54.1	95	52.7	0	2	248	0.00	29.848 
04:25	54.2	54.2	54.2	95	52.8	0	2	248	0.00	29.848 
04:30	54.4	54.4	54.4	95	53.0	1	3	248	0.00	29.847 
04:35	54.7	54.7	54.7	95	53.3	2	3	248	0.00	29.847 
04:40	54.8	54.8	54.8	95	53.4	1	3	248	0.00	29.847 
04:45	54.8	54.8	54.8	95	53.4	0	3	248	0.00	29.856 
04:50	54.8	54.8	54.8	95	53.4	0	1	248	0.00	29.856 
04:55	54.7	54.7	54.7	95	53.3	0	0	---	0.00	29.856 
05:00	54.7	54.7	54.7	95	53.3	0	1	248	0.00	29.859 
05:05	54.5	54.5	54.5	95	53.1	0	0	---	0.00	29.859 
05:10	54.5	54.5	54.5	95	53.1	0	1	248	0.00	29.859 
05:15	54.5	54.5	54.5	95	53.1	0	2	248	0.00	29.874 
05:20	54.5	54.5	54.5	95	53.1	0	0	---	0.00	29.874 
05:25	54.7	54.7	54.7	95	53.3	0	1	248	0.00	29.874 
05:30	54.7	54.7	54.7	95	53.3	0	1	248	0.00	29.879 
05:35	54.7	54.7	54.7	95	53.3	0	0	---	0.00	29.879 
05:40	54.7	54.7	54.7	95	53.3	0	1	248	0.00	29.879 
05:45	54.8	54.8	54.8	95	53.4	1	2	248	0.00	29.887 
05:50	55.0	55.0	55.0	96	53.9	1	2	248	0.00	29.887 
05:55	55.1	55.1	55.1	96	54.0	0	2	248	0.00	29.887 
06:00	55.3	55.3	55.3	96	54.2	1	3	248	0.00	29.890 
06:05	55.3	55.3	55.3	96	54.2	1	3	248	0.00	29.890 
06:10	55.4	55.4	55.4	96	54.3	1	2	248	0.00	29.890 
06:15	55.6	55.6	55.6	96	54.5	1	3	248	0.00	29.895 
06:20	55.6	55.6	55.6	96	54.5	0	2	225	0.00	29.895 
06:25	55.4	55.4	55.4	96	54.3	0	1	225	0.00	29.895 
06:30	55.3	55.3	55.3	96	54.2	0	0	---	0.00	29.902 
06:35	55.1	55.1	55.1	96	54.0	0	0	---	0.00	29.902 
06:40	55.1	55.1	55.1	96	54.0	0	0	---	0.00	29.902 
06:45	55.0	55.0	55.0	96	53.9	0	0	---	0.00	29.904 
06:50	55.0	55.0	55.0	95	53.6	0	2	225	0.00	29.904 
06:55	55.0	55.0	55.0	96	53.9	0	0	---	0.00	29.904 
07:00	54.8	54.8	54.8	96	53.7	0	0	---	0.00	29.901 
07:05	54.8	54.8	54.8	96	53.7	0	0	---	0.00	29.901 
07:10	54.8	54.8	54.8	96	53.7	0	0	---	0.00	29.901 
07:15	54.7	54.7	54.7	96	53.6	0	0	---	0.00	29.893 
07:20	54.5	54.5	54.5	96	53.4	0	0	---	0.00	29.893 
07:25	54.5	54.5	54.5	96	53.4	0	0	---	0.00	29.893 
07:30	54.5	54.5	54.5	96	53.4	0	0	---	0.00	29.894 
07:35	54.7	54.7	54.7	96	53.6	0	0	---	0.00	29.894 
07:40	54.7	54.7	54.7	96	53.6	0	0	---	0.00	29.894 
07:45	54.7	54.7	54.7	96	53.6	0	1	225	0.00	29.899 
07:50	55.0	55.0	55.0	96	53.9	0	1	225	0.00	29.899 
07:55	55.1	55.1	55.1	96	54.0	0	1	225	0.00	29.899 
08:00	55.3	55.3	55.3	96	54.2	0	0	---	0.00	29.908 
08:05	55.3	55.3	55.3	96	54.2	0	1	225	0.00	29.908 
08:10	55.6	55.6	55.6	96	54.5	0	1	225	0.00	29.908 
08:15	55.6	55.6	55.6	96	54.5	0	1	225	0.00	29.919 
08:20	55.7	55.7	55.7	96	54.6	0	1	225	0.00	29.919 
08:25	55.7	55.7	55.7	96	54.6	0	2	225	0.00	29.919 
08:30	55.9	55.9	55.9	96	54.8	0	1	225	0.00	29.922 
08:35	55.9	55.9	55.9	96	54.8	0	1	225	0.00	29.922 
08:40	55.9	55.9	55.9	96	54.8	0	1	225	0.00	29.922 
08:45	55.9	55.9	55.9	96	54.8	0	1	225	0.00	29.923 
08:50	56.0	56.0	56.0	96	54.9	0	1	225	0.00	29.923 
08:55	56.0	56.0	56.0	96	54.9	0	2	225	0.00	29.923 
09:00	56.2	56.2	56.2	96	55.1	1	3	248	0.00	29.932 
09:05	56.2	56.2	56.2	96	55.1	1	4	248	0.00	29.932 
09:10	56.2	56.2	56.2	96	55.1	0	0	---	0.00	29.932 
09:15	56.2	56.2	56.2	96	55.1	0	0	---	0.00	29.932 
09:20	56.2	56.2	56.2	96	55.1	0	0	---	0.00	29.932 
09:25	56.2	56.2	56.2	96	55.1	0	1	248	0.01	29.932 
09:30	56.3	56.3	56.3	96	55.2	0	1	248	0.00	29.939 
09:35	56.3	56.3	56.3	96	55.2	0	1	248	0.00	29.939 
09:40	56.3	56.3	56.3	96	55.2	0	2	248	0.00	29.939 
09:45	56.5	56.5	56.5	96	55.4	0	2	248	0.00	29.949 
09:50	56.6	56.6	56.6	96	55.5	0	1	248	0.00	29.949 
09:55	56.7	56.7	56.7	96	55.6	1	2	248	0.00	29.949 
10:00	57.0	57.0	57.0	96	55.9	0	2	248	0.00	29.947 
10:05	57.3	57.3	57.3	96	56.2	0	2	248	0.00	29.947 
10:10	57.6	57.6	57.6	96	56.5	0	1	248	0.00	29.947 
10:15	57.6	57.6	57.6	96	56.5	0	4	248	0.00	29.953 
10:20	57.6	57.6	57.6	96	56.5	1	3	248	0.00	29.953 
10:25	58.4	58.4	58.4	96	57.3	0	2	248	0.00	29.953 
10:30	58.3	58.3	58.3	96	57.2	1	3	248	0.00	29.951 
10:35	58.3	58.3	58.3	96	57.2	0	2	338	0.00	29.951 
10:40	58.6	58.6	58.6	96	57.5	0	2	338	0.00	29.951 
10:45	58.9	58.9	58.9	95	57.5	1	3	0	0.00	29.942 
10:50	59.5	59.5	59.5	94	57.8	0	3	0	0.00	29.942 
10:55	59.8	59.8	59.8	89	56.5	2	4	90	0.00	29.942 
11:00	60.2	60.2	60.2	88	56.6	1	3	112	0.00	29.936 
11:05	60.7	60.7	60.7	86	56.5	1	2	0	0.00	29.936 
11:10	61.2	61.2	61.2	84	56.3	0	2	0	0.00	29.936 
11:15	61.3	61.3	61.3	83	56.1	0	2	0	0.00	29.942 
11:20	61.6	61.6	61.6	81	55.7	0	2	0	0.00	29.942 
11:25	62.1	62.1	62.1	82	56.5	2	4	0	0.00	29.942 
11:30	62.1	62.1	62.1	80	55.9	2	4	90	0.00	29.940 
11:35	62.3	62.3	62.3	83	57.1	2	4	112	0.00	29.940 
11:40	62.4	62.4	62.4	79	55.8	2	5	112	0.00	29.940 
11:45	62.6	62.6	62.6	82	57.0	1	3	68	0.00	29.934 
11:50	62.9	62.9	62.9	79	56.3	3	6	112	0.00	29.934 
11:55	63.5	63.5	63.5	80	57.2	1	4	112	0.00	29.934 
12:00	64.5	64.5	64.5	77	57.1	2	5	112	0.00	29.932 
12:05	64.8	64.8	64.8	74	56.3	2	5	112	0.00	29.932 
12:10	65.0	65.0	65.0	77	57.6	2	5	112	0.00	29.932 
12:15	65.2	65.2	65.2	76	57.4	2	5	68	0.00	29.923 
12:20	65.0	65.0	65.0	77	57.6	2	5	68	0.00	29.923 
12:25	64.2	64.2	64.2	77	56.8	2	5	112	0.00	29.923 
12:30	64.0	64.0	64.0	77	56.6	2	7	112	0.00	29.917 
12:35	63.7	63.7	63.7	79	57.1	2	5	90	0.00	29.917 
12:40	63.7	63.7	63.7	78	56.7	3	6	90	0.00	29.917 
12:45	64.0	64.0	64.0	77	56.6	3	7	45	0.00	29.916 
12:50	64.3	64.3	64.3	78	57.3	2	7	112	0.00	29.916 
12:55	65.2	65.2	65.2	72	55.9	3	7	90	0.00	29.916 
13:00	65.5	65.5	65.5	72	56.2	3	9	90	0.00	29.919 
13:05	65.2	65.2	65.2	73	56.3	3	5	112	0.00	29.919 
13:10	65.0	65.0	65.0	75	56.9	2	5	90	0.00	29.919 
13:15	65.0	65.0	65.0	72	55.7	2	4	112	0.00	29.921 
13:20	65.3	65.3	65.3	72	56.0	2	4	68	0.00	29.921 
13:25	65.6	65.6	65.6	71	55.9	3	7	112	0.00	29.921 
13:30	65.5	65.5	65.5	73	56.6	2	6	112	0.00	29.913 
13:35	65.2	65.2	65.2	72	55.9	3	6	112	0.00	29.913 
13:40	65.0	65.0	65.0	73	56.1	3	5	112	0.00	29.913 
13:45	65.0	65.0	65.0	73	56.1	2	6	112	0.00	29.911 
13:50	65.0	65.0	65.0	73	56.1	2	4	90	0.00	29.911 
13:55	64.8	64.8	64.8	72	55.6	1	5	90	0.00	29.911 
14:00	64.8	64.8	64.8	73	55.9	2	5	112	0.00	29.902 
14:05	64.8	64.8	64.8	73	55.9	1	3	112	0.00	29.902 
14:10	64.7	64.7	64.7	74	56.2	3	6	90	0.00	29.902 
14:15	64.5	64.5	64.5	75	56.4	3	6	112	0.00	29.891 
14:20	64.5	64.5	64.5	75	56.4	3	7	90	0.00	29.891 
14:25	64.5	64.5	64.5	76	56.8	3	9	112	0.00	29.891 
14:30	64.7	64.7	64.7	76	57.0	5	7	112	0.00	29.875 
14:35	64.7	64.7	64.7	76	57.0	5	8	112	0.00	29.875 
14:40	64.7	64.7	64.7	76	57.0	4	7	90	0.00	29.875 
14:45	64.8	64.8	64.8	75	56.7	4	10	112	0.00	29.868 
14:50	64.8	64.8	64.8	77	57.4	4	7	112	0.00	29.868 
14:55	64.8	64.8	64.8	77	57.4	5	10	112	0.00	29.868 
15:00	65.0	65.0	65.0	76	57.2	3	8	112	0.00	29.868 
15:05	65.3	65.3	65.3	76	57.5	2	7	90	0.00	29.868 
15:10	65.3	65.3	65.3	76	57.5	2	6	112	0.00	29.868 
15:15	65.2	65.2	65.2	76	57.4	2	5	112	0.00	29.871 
15:20	64.8	64.8	64.8	77	57.4	2	6	112	0.00	29.871 
15:25	64.7	64.7	64.7	77	57.3	1	3	112	0.00	29.871 
15:30	64.3	64.3	64.3	77	56.9	3	7	90	0.00	29.870 
15:35	64.2	64.2	64.2	77	56.8	3	9	90	0.00	29.870 
15:40	64.0	64.0	64.0	77	56.6	3	9	90	0.00	29.870 
15:45	63.9	63.9	63.9	77	56.5	2	9	112	0.00	29.873 
15:50	63.9	63.9	63.9	78	56.9	2	7	90	0.00	29.873 
15:55	63.7	63.7	63.7	78	56.7	3	10	90	0.00	29.873 
16:00	63.7	63.7	63.7	79	57.1	2	4	112	0.00	29.881 
16:05	63.7	63.7	63.7	79	57.1	2	5	90	0.00	29.881 
16:10	63.7	63.7	63.7	80	57.4	1	2	68	0.00	29.881 
16:15	63.7	63.7	63.7	79	57.1	1	4	248	0.00	29.875 
16:20	63.7	63.7	63.7	78	56.7	1	4	90	0.00	29.875 
16:25	63.5	63.5	63.5	79	56.9	1	4	248	0.00	29.875 
16:30	63.4	63.4	63.4	79	56.8	1	3	270	0.00	29.871 
16:35	63.4	63.4	63.4	78	56.4	1	2	270	0.00	29.871 
16:40	63.1	63.1	63.1	79	56.5	1	3	270	0.00	29.871 
16:45	63.1	63.1	63.1	80	56.8	1	2	270	0.00	29.870 
16:50	62.9	62.9	62.9	80	56.6	0	0	---	0.00	29.870 
16:55	63.1	63.1	63.1	80	56.8	0	1	270	0.00	29.870 
17:00	63.1	63.1	63.1	80	56.8	1	3	270	0.00	29.869 
17:05	63.1	63.1	63.1	81	57.2	0	3	270	0.00	29.869 
17:10	63.2	63.2	63.2	80	56.9	0	2	248	0.00	29.869 
17:15	63.2	63.2	63.2	79	56.6	0	3	158	0.00	29.856 
17:20	63.2	63.2	63.2	80	56.9	1	2	90	0.00	29.856 
17:25	63.2	63.2	63.2	80	56.9	1	2	112	0.00	29.856 
17:30	63.1	63.1	63.1	80	56.8	1	2	112	0.00	29.845 
17:35	63.1	63.1	63.1	80	56.8	0	1	112	0.00	29.845 
17:40	62.9	62.9	62.9	80	56.6	1	2	112	0.00	29.845 
17:45	62.9	62.9	62.9	81	57.0	1	3	112	0.00	29.837 
17:50	62.9	62.9	62.9	81	57.0	1	3	90	0.00	29.837 
17:55	62.7	62.7	62.7	81	56.8	2	4	90	0.00	29.837 
18:00	62.6	62.6	62.6	82	57.0	1	3	90	0.00	29.838 
18:05	62.4	62.4	62.4	82	56.8	1	4	90	0.00	29.838 
18:10	62.3	62.3	62.3	82	56.7	1	3	112	0.00	29.838 
18:15	62.3	62.3	62.3	83	57.1	1	3	112	0.00	29.851 
18:20	62.1	62.1	62.1	83	56.9	1	3	112	0.00	29.851 
18:25	62.0	62.0	62.0	83	56.8	1	3	112	0.00	29.851 
18:30	62.0	62.0	62.0	83	56.8	2	4	112	0.00	29.854 
18:35	61.8	61.8	61.8	84	56.9	1	3	112	0.00	29.854 
18:40	61.8	61.8	61.8	84	56.9	2	4	112	0.00	29.854 
18:45	61.6	61.6	61.6	84	56.7	2	5	90	0.00	29.852 
18:50	61.5	61.5	61.5	84	56.6	2	5	90	0.00	29.852 
18:55	61.3	61.3	61.3	85	56.7	2	5	90	0.00	29.852 
19:00	61.2	61.2	61.2	85	56.6	2	4	90	0.00	29.851 
19:05	61.0	61.0	61.0	86	56.8	1	3	90	0.00	29.851 
19:10	60.9	60.9	60.9	86	56.7	2	3	112	0.00	29.851 
19:15	60.7	60.7	60.7	86	56.5	2	4	112	0.00	29.854 
19:20	60.7	60.7	60.7	86	56.5	2	5	112	0.00	29.854 
19:25	60.5	60.5	60.5	87	56.6	2	4	90	0.00	29.854 
19:30	60.5	60.5	60.5	87	56.6	3	5	112	0.00	29.846 
19:35	60.4	60.4	60.4	87	56.5	3	6	112	0.00	29.846 
19:40	60.2	60.2	60.2	88	56.6	3	7	112	0.00	29.846 
19:45	60.2	60.2	60.2	88	56.6	3	6	112	0.00	29.837 
19:50	60.2	60.2	60.2	88	56.6	3	5	112	0.00	29.837 
19:55	60.2	60.2	60.2	88	56.6	3	9	90	0.00	29.837 
20:00	60.2	60.2	60.2	88	56.6	3	7	90	0.00	29.825 
20:05	60.2	60.2	60.2	88	56.6	3	6	90	0.00	29.825 
20:10	60.2	60.2	60.2	88	56.6	2	7	112	0.00	29.825 
20:15	60.1	60.1	60.1	88	56.5	1	3	135	0.00	29.831 
20:20	60.1	60.1	60.1	89	56.8	3	5	112	0.00	29.831 
20:25	60.1	60.1	60.1	89	56.8	2	5	112	0.00	29.831 
20:30	60.1	60.1	60.1	89	56.8	2	5	90	0.00	29.832 
20:35	60.1	60.1	60.1	89	56.8	2	4	112	0.00	29.832 
20:40	60.1	60.1	60.1	89	56.8	2	4	90	0.00	29.832 
20:45	60.1	60.1	60.1	89	56.8	3	5	112	0.00	29.825 
20:50	60.1	60.1	60.1	89	56.8	2	4	112	0.00	29.825 
20:55	60.1	60.1	60.1	89	56.8	2	4	90	0.00	29.825 
21:00	60.1	60.1	60.1	89	56.8	2	3	112	0.00	29.807 
21:05	60.1	60.1	60.1	89	56.8	2	4	112	0.00	29.807 
21:10	60.1	60.1	60.1	88	56.5	2	5	112	0.00	29.807 
21:15	60.1	60.1	60.1	88	56.5	1	5	90	0.00	29.794 
21:20	60.1	60.1	60.1	88	56.5	1	4	112	0.00	29.794 
21:25	60.1	60.1	60.1	88	56.5	2	5	112	0.00	29.794 
21:30	59.9	59.9	59.9	88	56.3	2	4	112	0.00	29.776 
21:35	59.9	59.9	59.9	88	56.3	2	4	112	0.00	29.776 
21:40	59.9	59.9	59.9	88	56.3	3	5	112	0.00	29.776 
21:45	60.1	60.1	60.1	88	56.5	2	5	90	0.00	29.796 
21:50	60.1	60.1	60.1	88	56.5	3	7	90	0.00	29.796 
21:55	60.1	60.1	60.1	88	56.5	2	6	112	0.00	29.796 
22:00	60.1	60.1	60.1	88	56.5	3	7	90	0.00	29.761 
22:05	60.1	60.1	60.1	88	56.5	2	5	112	0.00	29.761 
22:10	60.1	60.1	60.1	91	57.5	3	6	112	0.00	29.761 
22:15	60.1	60.1	60.1	88	56.5	3	7	112	0.00	29.749 
22:20	60.1	60.1	60.1	88	56.5	3	7	112	0.00	29.749 
22:25	59.9	59.9	59.9	88	56.3	3	7	112	0.00	29.749 
22:30	59.9	59.9	59.9	88	56.3	3	7	90	0.00	29.740 
22:35	59.9	59.9	59.9	89	56.6	3	7	90	0.00	29.740 
22:40	59.8	59.8	59.8	89	56.5	3	6	112	0.00	29.740 
22:45	59.6	59.6	59.6	90	56.7	3	10	90	0.00	29.735 
22:50	59.6	59.6	59.6	90	56.7	2	5	90	0.00	29.735 
22:55	59.6	59.6	59.6	89	56.4	4	10	90	0.00	29.735 
23:00	59.6	59.6	59.6	89	56.4	5	10	90	0.00	29.710 
23:05	59.6	59.6	59.6	89	56.4	4	11	90	0.00	29.710 
23:10	59.6	59.6	59.6	89	56.4	5	12	90	0.00	29.710 
23:15	59.6	59.6	59.6	90	56.7	4	7	90	0.01	29.702 
23:20	59.5	59.5	59.5	90	56.6	3	7	90	0.01	29.702 
23:25	59.3	59.3	59.3	90	56.4	3	6	90	0.00	29.702 
23:30	59.2	59.2	59.2	90	56.3	3	10	112	0.00	29.681 
23:35	59.2	59.2	59.2	89	56.0	3	8	90	0.00	29.681 
23:40	59.2	59.2	59.2	89	56.0	2	6	68	0.00	29.681 
23:45	59.3	59.3	59.3	88	55.7	3	6	270	0.00	29.723 
23:50	59.3	59.3	59.3	89	56.1	2	6	248	0.00	29.723 
23:55	59.3	59.3	59.3	90	56.4	1	3	292	0.00	29.723 

CoCoRaHS
IN-AL-39
A2 Web Hosting
Creative Commons License
GoDaddy
Look for:

loaded 2017-12-10 21:35:36 • last modified 2010-11-18 10:43:29
Privacy PolicyDisclaimer
• wx.awcolley.com is powered by PmWiki v.2002016 •
• all content (unless otherwise noted) © 2017 A W Colley